KABE/ABE METAR and TAF weather

Enter ICAO airport designator
Station Type Date Time Source
KABE METAR 2019/10/16 18:58 UTC NOAA

KABE 161858Z 12008KT 5SM -RA SCT075 OVC095 17/14 A2960 RMK AO2 P0000 T01720144 $


Station Type Date Time Source
KABE Decoded METAR 2019/10/16 18:58 UTC NOAA

LEHIGH VALLEY INTERNATIONAL AIRPORT, PA, United States (KABE) 40-39N 075-27W 114M
Oct 16, 2019 - 02:58 PM EDT / 2019.10.16 1858 UTC
Wind: from the ESE (120 degrees) at 9 MPH (8 KT):0
Visibility: 5 mile(s):0
Sky conditions: overcast
Weather: light rain
Precipitation last hour: A trace
Temperature: 63.0 F (17.2 C)
Dew Point: 57.9 F (14.4 C)
Relative Humidity: 83%
Pressure (altimeter): 29.6 in. Hg (1002 hPa)
ob: KABE 161858Z 12008KT 5SM -RA SCT075 OVC095 17/14 A2960 RMK AO2 P0000 T01720144
cycle: 19

Station Type Date Time Source
KABE TAF 2019/10/16 18:30 UTC NOAA

TAF KABE 161727Z 1618/1718 14010G16KT 3SM RA SCT018 OVC035
TEMPO 1618/1621 2SM +RA OVC015
FM162100 11006KT 2SM +RA OVC008
FM170000 31010G18KT 3SM -SHRA OVC015
FM170300 29018G32KT P6SM OVC035

Example: see airport list